createdAt,value
2023-04-18T00:00:42.956Z,88.04
2023-04-18T00:01:42.986Z,88.04
2023-04-18T00:02:43.014Z,87.83
2023-04-18T00:03:43.162Z,87.93
2023-04-18T00:04:43.012Z,87.93
2023-04-18T00:05:42.903Z,88.14
2023-04-18T00:06:42.888Z,88.14
2023-04-18T00:07:42.878Z,88.08
2023-04-18T00:08:42.867Z,87.87
2023-04-18T00:09:42.931Z,88.08
2023-04-18T00:10:42.841Z,88.18
2023-04-18T00:11:42.832Z,87.98
2023-04-18T00:12:42.817Z,87.77
2023-04-18T00:13:42.809Z,87.92
2023-04-18T00:14:42.865Z,88.32
2023-04-18T00:15:42.789Z,88.64
2023-04-18T00:16:42.896Z,88.74
2023-04-18T00:17:42.796Z,88.84
2023-04-18T00:18:42.751Z,89.05
2023-04-18T00:19:42.759Z,89.19
2023-04-18T00:20:42.733Z,89.29
2023-04-18T00:21:42.722Z,89.09
2023-04-18T00:22:43.027Z,88.89
2023-04-18T00:23:42.703Z,88.78
2023-04-18T00:24:42.703Z,89.09
2023-04-18T00:25:42.693Z,89.50
2023-04-18T00:26:42.670Z,89.95
2023-04-18T00:27:42.659Z,90.06
2023-04-18T00:28:42.640Z,90.06
2023-04-18T00:29:42.655Z,89.95
2023-04-18T00:30:42.636Z,89.65
2023-04-18T00:31:42.669Z,89.34
2023-04-18T00:32:42.688Z,89.13
2023-04-18T00:33:42.592Z,88.92
2023-04-18T00:34:42.599Z,88.86
2023-04-18T00:35:42.578Z,89.17
2023-04-18T00:36:42.626Z,90.00
2023-04-18T00:37:42.595Z,90.20
2023-04-18T00:38:42.556Z,90.52
2023-04-18T00:39:42.548Z,90.83
2023-04-18T00:40:42.509Z,91.13
2023-04-18T00:41:42.512Z,91.44
2023-04-18T00:42:42.490Z,91.34
2023-04-18T00:43:42.483Z,90.93
2023-04-18T00:44:42.489Z,91.24
2023-04-18T00:45:42.464Z,91.55
2023-04-18T00:46:42.511Z,91.44
2023-04-18T00:47:42.458Z,91.86
2023-04-18T00:48:42.549Z,92.07
2023-04-18T00:49:42.433Z,92.48
2023-04-18T00:50:42.463Z,92.17
2023-04-18T00:51:42.446Z,92.07
2023-04-18T00:52:42.382Z,92.07
2023-04-18T00:53:42.378Z,91.96
2023-04-18T00:54:42.365Z,91.96
2023-04-18T00:55:42.409Z,92.17
2023-04-18T00:56:42.392Z,92.07
2023-04-18T00:57:42.394Z,91.96
2023-04-18T00:58:42.321Z,92.21
2023-04-18T00:59:42.361Z,92.21
2023-04-18T01:00:42.297Z,92.32
2023-04-18T01:01:42.344Z,92.42
2023-04-18T01:02:42.428Z,92.83
2023-04-18T01:03:42.529Z,92.83
2023-04-18T01:04:42.562Z,92.93
2023-04-18T01:05:42.241Z,93.04
2023-04-18T01:06:42.238Z,93.14
2023-04-18T01:07:42.223Z,93.35
2023-04-18T01:08:42.238Z,93.66
2023-04-18T01:09:42.203Z,93.55
2023-04-18T01:10:42.193Z,93.76
2023-04-18T01:11:42.174Z,93.97
2023-04-18T01:12:42.168Z,93.87
2023-04-18T01:13:42.221Z,94.18
2023-04-18T01:14:42.156Z,94.48
2023-04-18T01:15:42.205Z,94.18
2023-04-18T01:16:42.181Z,94.07
2023-04-18T01:17:42.146Z,94.18
2023-04-18T01:18:42.099Z,94.12
2023-04-18T01:19:42.117Z,94.07
2023-04-18T01:20:42.194Z,94.38
2023-04-18T01:21:42.099Z,94.73
2023-04-18T01:22:42.068Z,94.63
2023-04-18T01:23:42.146Z,94.43
2023-04-18T01:24:42.069Z,94.43
2023-04-18T01:25:42.024Z,94.47
2023-04-18T01:26:42.057Z,94.57
2023-04-18T01:27:42.001Z,94.89
2023-04-18T01:28:42.065Z,94.89
2023-04-18T01:29:42.014Z,94.98
2023-04-18T01:30:42.009Z,95.19
2023-04-18T01:31:42.097Z,95.09
2023-04-18T01:32:42.017Z,95.09
2023-04-18T01:33:41.990Z,95.19
2023-04-18T01:34:41.937Z,95.40
2023-04-18T01:35:41.916Z,95.29
2023-04-18T01:36:41.939Z,95.40
2023-04-18T01:37:41.893Z,95.61
2023-04-18T01:38:41.918Z,95.81
2023-04-18T01:39:41.878Z,95.61
2023-04-18T01:40:41.913Z,95.50
2023-04-18T01:41:41.848Z,95.71
2023-04-18T01:42:41.842Z,95.61
2023-04-18T01:43:41.851Z,95.75
2023-04-18T01:44:41.910Z,95.61
2023-04-18T01:45:41.841Z,95.61
2023-04-18T01:46:41.947Z,95.50
2023-04-18T01:47:41.798Z,95.50
2023-04-18T01:48:41.910Z,95.50
2023-04-18T01:49:41.861Z,95.34
2023-04-18T01:50:41.764Z,95.14
2023-04-18T01:51:41.738Z,94.98
2023-04-18T01:52:41.767Z,95.09
2023-04-18T01:53:41.786Z,95.09
2023-04-18T01:54:41.725Z,94.98
2023-04-18T01:55:41.696Z,94.98
2023-04-18T01:56:41.700Z,94.98
2023-04-18T01:57:41.665Z,94.89
2023-04-18T01:58:41.707Z,95.09
2023-04-18T01:59:41.662Z,95.34
2023-04-18T02:00:41.646Z,95.34
2023-04-18T02:01:41.628Z,95.24
2023-04-18T02:02:41.844Z,94.93
2023-04-18T02:03:41.787Z,94.72
2023-04-18T02:04:41.615Z,94.62
2023-04-18T02:05:41.588Z,94.62
2023-04-18T02:06:41.632Z,94.72
2023-04-18T02:07:41.562Z,94.72
2023-04-18T02:08:41.566Z,94.93
2023-04-18T02:09:41.551Z,95.07
2023-04-18T02:10:41.539Z,94.97
2023-04-18T02:11:41.602Z,94.97
2023-04-18T02:12:41.545Z,95.07
2023-04-18T02:13:41.512Z,95.28
2023-04-18T02:14:41.510Z,95.28
2023-04-18T02:15:41.504Z,95.39
2023-04-18T02:16:41.554Z,95.59
2023-04-18T02:17:41.678Z,95.59
2023-04-18T02:18:41.449Z,95.90
2023-04-18T02:19:41.447Z,96.01
2023-04-18T02:20:41.495Z,96.15
2023-04-18T02:21:41.420Z,95.84
2023-04-18T02:22:41.428Z,95.84
2023-04-18T02:23:41.391Z,95.84
2023-04-18T02:24:41.404Z,96.05
2023-04-18T02:25:41.440Z,96.26
2023-04-18T02:26:41.386Z,96.36
2023-04-18T02:27:41.337Z,96.26
2023-04-18T02:28:41.532Z,96.26
2023-04-18T02:29:41.351Z,96.20
2023-04-18T02:30:41.451Z,96.20
2023-04-18T02:31:41.395Z,96.41
2023-04-18T02:32:41.361Z,96.41
2023-04-18T02:33:41.298Z,96.20
2023-04-18T02:34:41.277Z,95.99
2023-04-18T02:35:41.260Z,96.09
2023-04-18T02:36:41.269Z,96.09
2023-04-18T02:37:41.238Z,96.09
2023-04-18T02:38:41.299Z,95.99
2023-04-18T02:39:41.215Z,95.78
2023-04-18T02:40:41.213Z,95.62
2023-04-18T02:41:41.194Z,95.72
2023-04-18T02:42:41.202Z,95.62
2023-04-18T02:43:41.185Z,95.41
2023-04-18T02:44:41.172Z,95.51
2023-04-18T02:45:41.267Z,95.41
2023-04-18T02:46:41.160Z,95.83
2023-04-18T02:47:53.735Z,96.72
2023-04-18T02:48:42.133Z,96.72
2023-04-18T02:49:41.109Z,96.92
2023-04-18T02:50:41.100Z,97.03
2023-04-18T02:51:41.097Z,97.24
2023-04-18T02:52:41.086Z,97.34
2023-04-18T02:53:41.084Z,97.34
2023-04-18T02:54:41.057Z,97.34
2023-04-18T02:55:41.049Z,97.44
2023-04-18T02:56:41.042Z,97.13
2023-04-18T02:57:41.017Z,96.92
2023-04-18T02:58:41.036Z,96.82
2023-04-18T02:59:41.012Z,96.82
2023-04-18T03:00:40.998Z,96.82
2023-04-18T03:01:41.097Z,96.82
2023-04-18T03:02:41.113Z,96.72
2023-04-18T03:03:40.965Z,96.61
2023-04-18T03:04:40.988Z,96.67
2023-04-18T03:05:40.934Z,96.78
2023-04-18T03:06:40.944Z,96.88
2023-04-18T03:07:41.081Z,96.57
2023-04-18T03:08:40.954Z,96.20
2023-04-18T03:09:40.966Z,95.89
2023-04-18T03:10:40.874Z,95.47
2023-04-18T03:11:40.868Z,95.16
2023-04-18T03:12:40.846Z,95.00
2023-04-18T03:13:40.902Z,94.89
2023-04-18T03:14:40.832Z,95.26
2023-04-18T03:15:40.835Z,95.41
2023-04-18T03:16:40.817Z,95.20
2023-04-18T03:17:40.848Z,95.20
2023-04-18T03:18:40.809Z,95.51
2023-04-18T03:19:40.789Z,95.62
2023-04-18T03:20:40.798Z,95.72
2023-04-18T03:21:40.756Z,95.51
2023-04-18T03:22:40.748Z,95.51
2023-04-18T03:23:40.749Z,95.62
2023-04-18T03:24:40.801Z,95.72
2023-04-18T03:25:40.738Z,95.72
2023-04-18T03:26:40.730Z,95.83
2023-04-18T03:27:40.690Z,96.66
2023-04-18T03:28:40.691Z,96.66
2023-04-18T03:29:40.720Z,96.55
2023-04-18T03:30:40.650Z,96.45
2023-04-18T03:31:40.765Z,96.45
2023-04-18T03:32:40.682Z,96.45
2023-04-18T03:33:40.652Z,96.45
2023-04-18T03:34:40.633Z,96.45
2023-04-18T03:35:40.613Z,96.45
2023-04-18T03:36:40.588Z,96.55
2023-04-18T03:37:40.595Z,96.45
2023-04-18T03:38:40.597Z,96.45
2023-04-18T03:39:40.638Z,96.55
2023-04-18T03:40:40.565Z,96.55
2023-04-18T03:41:40.548Z,96.66
2023-04-18T03:42:40.524Z,96.55
2023-04-18T03:43:40.535Z,96.55
2023-04-18T03:44:40.501Z,96.24
2023-04-18T03:45:40.499Z,96.34
2023-04-18T03:46:40.544Z,96.34
2023-04-18T03:47:40.550Z,96.34
2023-04-18T03:48:40.485Z,96.55
2023-04-18T03:49:40.540Z,96.55
2023-04-18T03:50:40.516Z,96.45
2023-04-18T03:51:40.428Z,96.55
2023-04-18T03:52:40.448Z,96.66
2023-04-18T03:53:40.457Z,96.45
2023-04-18T03:54:40.392Z,96.55
2023-04-18T03:55:40.393Z,96.66
2023-04-18T03:56:40.379Z,96.66
2023-04-18T03:57:41.406Z,97.34
2023-04-18T03:58:40.413Z,97.44
2023-04-18T03:59:40.353Z,97.55
2023-04-18T04:00:40.349Z,97.34
2023-04-18T04:01:40.368Z,97.34
2023-04-18T04:02:40.496Z,97.28
2023-04-18T04:03:40.551Z,97.07
2023-04-18T04:04:40.350Z,96.76
2023-04-18T04:05:40.291Z,96.55
2023-04-18T04:06:40.291Z,96.55
2023-04-18T04:07:40.295Z,96.55
2023-04-18T04:08:40.325Z,96.45
2023-04-18T04:09:40.236Z,96.24
2023-04-18T04:10:40.236Z,96.45
2023-04-18T04:11:40.219Z,96.66
2023-04-18T04:12:40.293Z,96.66
2023-04-18T04:13:40.218Z,96.76
2023-04-18T04:14:40.184Z,96.86
2023-04-18T04:15:40.199Z,96.66
2023-04-18T04:16:40.244Z,96.34
2023-04-18T04:17:40.227Z,96.34
2023-04-18T04:18:40.305Z,96.34
2023-04-18T04:19:40.196Z,96.24
2023-04-18T04:20:40.153Z,96.24
2023-04-18T04:21:40.106Z,96.34
2023-04-18T04:22:40.126Z,96.24
2023-04-18T04:23:40.118Z,96.34
2023-04-18T04:24:40.177Z,96.14
2023-04-18T04:25:40.123Z,95.93
2023-04-18T04:26:40.134Z,95.83
2023-04-18T04:27:40.038Z,95.93
2023-04-18T04:28:40.082Z,95.72
2023-04-18T04:29:40.029Z,95.62
2023-04-18T04:30:40.016Z,95.72
2023-04-18T04:31:40.023Z,95.72
2023-04-18T04:32:40.031Z,95.72
2023-04-18T04:33:39.986Z,95.83
2023-04-18T04:34:39.965Z,95.62
2023-04-18T04:35:39.961Z,95.51
2023-04-18T04:36:39.948Z,95.62
2023-04-18T04:37:39.976Z,95.41
2023-04-18T04:38:39.944Z,95.51
2023-04-18T04:39:40.006Z,95.51
2023-04-18T04:40:39.995Z,95.51
2023-04-18T04:41:39.888Z,95.68
2023-04-18T04:42:39.872Z,95.57
2023-04-18T04:43:39.954Z,95.47
2023-04-18T04:44:39.925Z,95.37
2023-04-18T04:45:39.845Z,95.26
2023-04-18T04:46:39.829Z,95.37
2023-04-18T04:47:39.864Z,95.16
2023-04-18T04:48:39.814Z,95.26
2023-04-18T04:49:39.804Z,95.16
2023-04-18T04:50:39.790Z,94.95
2023-04-18T04:51:39.783Z,94.85
2023-04-18T04:52:39.816Z,94.85
2023-04-18T04:53:39.780Z,94.85
2023-04-18T04:54:39.736Z,94.95
2023-04-18T04:55:39.734Z,94.95
2023-04-18T04:56:39.719Z,95.16
2023-04-18T04:57:39.712Z,95.12
2023-04-18T04:58:39.829Z,94.81
2023-04-18T04:59:39.723Z,94.39
2023-04-18T05:00:39.683Z,94.29
2023-04-18T05:01:39.700Z,93.93
2023-04-18T05:02:39.817Z,93.52
2023-04-18T05:03:39.991Z,93.31
2023-04-18T05:04:39.773Z,93.41
2023-04-18T05:05:39.639Z,93.62
2023-04-18T05:06:40.386Z,93.41
2023-04-18T05:07:39.653Z,93.31
2023-04-18T05:08:39.590Z,93.10
2023-04-18T05:09:39.638Z,93.41
2023-04-18T05:10:39.639Z,93.41
2023-04-18T05:11:39.642Z,93.27
2023-04-18T05:12:39.572Z,93.06
2023-04-18T05:13:39.538Z,92.96
2023-04-18T05:14:39.593Z,92.85
2023-04-18T05:15:39.525Z,92.96
2023-04-18T05:16:39.551Z,92.85
2023-04-18T05:17:39.525Z,92.65
2023-04-18T05:18:39.501Z,92.55
2023-04-18T05:19:39.484Z,92.55
2023-04-18T05:20:39.510Z,92.24
2023-04-18T05:21:39.448Z,92.44
2023-04-18T05:22:39.438Z,92.65
2023-04-18T05:23:39.443Z,92.76
2023-04-18T05:24:39.410Z,92.85
2023-04-18T05:25:39.420Z,92.85
2023-04-18T05:26:39.410Z,92.91
2023-04-18T05:27:39.436Z,92.71
2023-04-18T05:28:39.389Z,92.61
2023-04-18T05:29:39.359Z,92.50
2023-04-18T05:30:39.392Z,92.40
2023-04-18T05:31:39.368Z,91.99
2023-04-18T05:32:39.408Z,91.67
2023-04-18T05:33:39.322Z,91.47
2023-04-18T05:34:39.300Z,91.67
2023-04-18T05:35:39.297Z,91.63
2023-04-18T05:36:39.298Z,91.53
2023-04-18T05:37:39.344Z,91.63
2023-04-18T05:38:39.256Z,91.53
2023-04-18T05:39:39.255Z,91.42
2023-04-18T05:40:39.251Z,91.42
2023-04-18T05:41:39.230Z,91.22
2023-04-18T05:42:39.243Z,90.91
2023-04-18T05:43:39.279Z,90.80
2023-04-18T05:44:39.206Z,90.60
2023-04-18T05:45:39.191Z,90.60
2023-04-18T05:46:39.413Z,90.50
2023-04-18T05:47:39.301Z,90.66
2023-04-18T05:48:39.237Z,90.66
2023-04-18T05:49:39.158Z,90.66
2023-04-18T05:50:39.136Z,90.77
2023-04-18T05:51:39.115Z,91.17
2023-04-18T05:52:39.249Z,90.87
2023-04-18T05:53:39.135Z,90.66
2023-04-18T05:54:39.097Z,90.56
2023-04-18T05:55:39.076Z,90.77
2023-04-18T05:56:39.071Z,90.66
2023-04-18T05:57:39.127Z,90.97
2023-04-18T05:58:39.161Z,90.87
2023-04-18T05:59:39.033Z,90.62
2023-04-18T06:00:39.025Z,89.89
2023-04-18T06:01:39.028Z,89.89
2023-04-18T06:02:39.151Z,89.28
2023-04-18T06:03:39.152Z,89.23
2023-04-18T06:04:39.098Z,89.23
2023-04-18T06:05:39.088Z,88.61
2023-04-18T06:06:38.998Z,87.74
2023-04-18T06:07:38.998Z,87.29
2023-04-18T06:08:39.001Z,87.60
2023-04-18T06:09:39.025Z,87.46
2023-04-18T06:10:39.214Z,86.63
2023-04-18T06:11:39.007Z,85.77
2023-04-18T06:12:38.998Z,85.05
2023-04-18T06:13:38.882Z,84.39
2023-04-18T06:14:38.911Z,84.29
2023-04-18T06:15:38.977Z,84.80
2023-04-18T06:16:39.076Z,84.14
2023-04-18T06:17:38.937Z,83.94
2023-04-18T06:18:38.849Z,83.42
2023-04-18T06:19:38.834Z,83.01
2023-04-18T06:20:38.811Z,83.53
2023-04-18T06:21:38.793Z,83.07
2023-04-18T06:22:38.816Z,83.59
2023-04-18T06:23:38.811Z,83.59
2023-04-18T06:24:38.750Z,83.90
2023-04-18T06:25:38.763Z,82.32
2023-04-18T06:26:38.765Z,83.04
2023-04-18T06:27:38.770Z,82.79
2023-04-18T06:28:38.719Z,81.76
2023-04-18T06:29:38.708Z,81.76
2023-04-18T06:30:38.691Z,81.01
2023-04-18T06:31:38.720Z,80.49
2023-04-18T06:32:38.726Z,81.59
2023-04-18T06:33:38.662Z,80.25
2023-04-18T06:34:38.671Z,80.32
2023-04-18T06:35:38.646Z,79.19
2023-04-18T06:36:38.631Z,78.67
2023-04-18T06:37:38.633Z,78.98
2023-04-18T06:38:38.620Z,80.28
2023-04-18T06:39:38.601Z,79.25
2023-04-18T06:40:38.695Z,78.53
2023-04-18T06:41:38.600Z,77.58
2023-04-18T06:42:38.592Z,77.06
2023-04-18T06:43:38.578Z,76.65
2023-04-18T06:44:38.563Z,76.86
2023-04-18T06:45:38.616Z,76.55
2023-04-18T06:46:38.589Z,76.51
2023-04-18T06:47:38.563Z,76.62
2023-04-18T06:48:38.535Z,76.82
2023-04-18T06:49:38.541Z,76.58
2023-04-18T06:50:38.517Z,76.07
2023-04-18T06:51:38.512Z,76.89
2023-04-18T06:52:38.542Z,76.65
2023-04-18T06:53:38.510Z,75.82
2023-04-18T06:54:38.435Z,75.31
2023-04-18T06:55:38.416Z,74.70
2023-04-18T06:56:38.418Z,75.01
2023-04-18T06:57:38.412Z,75.28
2023-04-18T06:58:38.383Z,75.48
2023-04-18T06:59:38.391Z,74.36
2023-04-18T07:00:38.362Z,73.85
2023-04-18T07:01:38.510Z,73.71
2023-04-18T07:02:38.583Z,73.81
2023-04-18T07:03:38.362Z,73.50
2023-04-18T07:04:38.395Z,73.88
2023-04-18T07:05:38.329Z,73.47
2023-04-18T07:06:38.290Z,73.16
2023-04-18T07:07:38.301Z,73.36
2023-04-18T07:08:38.286Z,72.72
2023-04-18T07:09:38.260Z,72.72
2023-04-18T07:10:38.252Z,71.80
2023-04-18T07:11:38.249Z,71.59
2023-04-18T07:12:38.232Z,71.70
2023-04-18T07:13:38.252Z,72.00
2023-04-18T07:14:38.279Z,71.90
2023-04-18T07:15:38.211Z,71.87
2023-04-18T07:16:38.251Z,72.07
2023-04-18T07:17:38.258Z,70.34
2023-04-18T07:18:38.714Z,70.43
2023-04-18T07:19:38.153Z,70.75
2023-04-18T07:20:38.186Z,70.64
2023-04-18T07:21:38.128Z,71.66
2023-04-18T07:22:38.133Z,70.95
2023-04-18T07:23:38.130Z,70.20
2023-04-18T07:24:38.212Z,70.51
2023-04-18T07:25:38.083Z,70.92
2023-04-18T07:26:38.067Z,70.78
2023-04-18T07:27:38.076Z,69.56
2023-04-18T07:28:38.054Z,69.45
2023-04-18T07:29:38.051Z,69.65
2023-04-18T07:30:38.101Z,69.45
2023-04-18T07:31:38.016Z,70.37
2023-04-18T07:32:38.216Z,68.23
2023-04-18T07:33:38.018Z,67.71
2023-04-18T07:34:38.038Z,67.65
2023-04-18T07:35:37.978Z,68.36
2023-04-18T07:36:37.951Z,67.95
2023-04-18T07:37:38.042Z,67.78
2023-04-18T07:38:37.941Z,68.29
2023-04-18T07:39:37.932Z,68.16
2023-04-18T07:40:37.914Z,67.78
2023-04-18T07:41:37.906Z,67.75
2023-04-18T07:42:37.908Z,68.26
2023-04-18T07:43:37.890Z,68.60
2023-04-18T07:44:37.889Z,67.98
2023-04-18T07:45:37.870Z,68.19
2023-04-18T07:46:37.939Z,67.78
2023-04-18T07:47:37.900Z,67.78
2023-04-18T07:48:37.831Z,68.57
2023-04-18T07:49:37.815Z,68.12
2023-04-18T07:50:37.886Z,66.80
2023-04-18T07:51:37.852Z,67.41
2023-04-18T07:52:39.325Z,68.19
2023-04-18T07:53:38.000Z,68.40
2023-04-18T07:54:37.767Z,66.53
2023-04-18T07:55:37.757Z,66.22
2023-04-18T07:56:37.770Z,66.94
2023-04-18T07:57:37.741Z,66.33
2023-04-18T07:58:37.733Z,66.09
2023-04-18T07:59:37.719Z,65.07
2023-04-18T08:00:37.701Z,65.00
2023-04-18T08:01:37.700Z,65.00
2023-04-18T08:02:37.800Z,65.61
2023-04-18T08:03:37.757Z,65.03
2023-04-18T08:04:37.878Z,65.61
2023-04-18T08:05:37.859Z,65.13
2023-04-18T08:06:37.632Z,65.61
2023-04-18T08:07:37.653Z,64.69
2023-04-18T08:08:37.735Z,65.41
2023-04-18T08:09:37.606Z,65.81
2023-04-18T08:10:37.597Z,66.09
2023-04-18T08:11:37.599Z,65.25
2023-04-18T08:12:37.609Z,65.65
2023-04-18T08:13:37.561Z,65.72
2023-04-18T08:14:37.546Z,63.89
2023-04-18T08:15:37.551Z,63.68
2023-04-18T08:16:37.614Z,64.12
2023-04-18T08:17:37.631Z,64.81
2023-04-18T08:18:37.520Z,63.38
2023-04-18T08:19:37.507Z,63.48
2023-04-18T08:20:37.485Z,64.17
2023-04-18T08:21:37.482Z,63.68
2023-04-18T08:22:46.798Z,63.99
2023-04-18T08:23:38.553Z,64.81
2023-04-18T08:24:37.438Z,64.12
2023-04-18T08:25:37.438Z,63.82
2023-04-18T08:26:37.461Z,63.41
2023-04-18T08:27:37.418Z,64.43
2023-04-18T08:28:37.404Z,65.37
2023-04-18T08:29:37.394Z,64.56
2023-04-18T08:30:37.373Z,65.07
2023-04-18T08:31:37.387Z,67.01
2023-04-18T08:32:37.431Z,66.33
2023-04-18T08:33:37.346Z,66.22
2023-04-18T08:34:37.374Z,65.92
2023-04-18T08:35:37.326Z,65.23
2023-04-18T08:36:37.315Z,66.15
2023-04-18T08:37:37.327Z,65.95
2023-04-18T08:38:37.300Z,65.84
2023-04-18T08:39:37.277Z,66.66
2023-04-18T08:40:37.270Z,66.66
2023-04-18T08:41:37.293Z,66.42
2023-04-18T08:42:37.255Z,67.35
2023-04-18T08:43:37.258Z,66.53
2023-04-18T08:44:37.232Z,65.92
2023-04-18T08:45:37.242Z,65.20
2023-04-18T08:46:37.202Z,65.51
2023-04-18T08:47:37.236Z,65.31
2023-04-18T08:48:37.193Z,65.13
2023-04-18T08:49:37.194Z,66.15
2023-04-18T08:50:37.159Z,65.54
2023-04-18T08:51:37.141Z,65.77
2023-04-18T08:52:37.142Z,66.39
2023-04-18T08:53:37.139Z,67.10
2023-04-18T08:54:37.104Z,67.58
2023-04-18T08:55:37.125Z,68.50
2023-04-18T08:56:37.107Z,66.66
2023-04-18T08:57:37.091Z,68.19
2023-04-18T08:58:37.085Z,67.38
2023-04-18T08:59:37.077Z,67.27
2023-04-18T09:00:37.036Z,67.18
2023-04-18T09:01:37.140Z,66.86
2023-04-18T09:02:37.055Z,68.19
2023-04-18T09:03:37.250Z,67.99
2023-04-18T09:04:37.097Z,67.18
2023-04-18T09:05:36.999Z,66.05
2023-04-18T09:06:37.026Z,67.07
2023-04-18T09:07:36.980Z,67.48
2023-04-18T09:08:36.964Z,67.89
2023-04-18T09:09:36.992Z,68.19
2023-04-18T09:10:36.936Z,67.48
2023-04-18T09:11:36.918Z,66.66
2023-04-18T09:12:36.925Z,66.59
2023-04-18T09:13:36.913Z,67.30
2023-04-18T09:14:36.895Z,66.90
2023-04-18T09:15:36.877Z,67.10
2023-04-18T09:16:36.885Z,67.79
2023-04-18T09:17:36.909Z,67.18
2023-04-18T09:18:36.880Z,67.99
2023-04-18T09:19:36.844Z,67.76
2023-04-18T09:20:36.844Z,67.14
2023-04-18T09:21:36.798Z,66.12
2023-04-18T09:22:37.955Z,65.51
2023-04-18T09:23:36.791Z,66.02
2023-04-18T09:24:36.769Z,65.10
2023-04-18T09:25:37.502Z,65.03
2023-04-18T09:26:36.762Z,66.36
2023-04-18T09:27:36.854Z,65.34
2023-04-18T09:28:36.738Z,66.15
2023-04-18T09:29:36.724Z,66.36
2023-04-18T09:30:36.764Z,66.12
2023-04-18T09:31:36.702Z,66.02
2023-04-18T09:32:36.787Z,67.35
2023-04-18T09:33:36.684Z,66.63
2023-04-18T09:34:36.759Z,65.41
2023-04-18T09:35:36.666Z,64.90
2023-04-18T09:36:36.650Z,64.90
2023-04-18T09:37:36.645Z,65.13
2023-04-18T09:38:36.625Z,66.33
2023-04-18T09:39:36.596Z,65.10
2023-04-18T09:40:36.608Z,64.69
2023-04-18T09:41:36.582Z,65.00
2023-04-18T09:42:36.587Z,64.39
2023-04-18T09:43:36.560Z,65.00
2023-04-18T09:44:36.555Z,64.79
2023-04-18T09:45:36.531Z,64.90
2023-04-18T09:46:36.572Z,65.17
2023-04-18T09:47:36.786Z,65.17
2023-04-18T09:48:36.512Z,64.81
2023-04-18T09:49:36.515Z,64.26
2023-04-18T09:50:36.489Z,63.15
2023-04-18T09:51:36.466Z,62.56
2023-04-18T09:52:36.474Z,62.97
2023-04-18T09:53:36.446Z,63.65
2023-04-18T09:54:36.476Z,62.74
2023-04-18T09:55:36.455Z,62.61
2023-04-18T09:56:36.438Z,62.61
2023-04-18T09:57:36.410Z,61.21
2023-04-18T09:58:36.398Z,62.13
2023-04-18T09:59:36.379Z,63.07
2023-04-18T10:00:36.366Z,63.58
2023-04-18T10:01:36.477Z,63.07
2023-04-18T10:02:36.437Z,63.28
2023-04-18T10:03:36.419Z,63.31
2023-04-18T10:04:36.355Z,63.00
2023-04-18T10:05:36.378Z,63.71
2023-04-18T10:06:36.311Z,65.14
2023-04-18T10:07:36.289Z,64.70
2023-04-18T10:08:36.282Z,65.52
2023-04-18T10:09:36.283Z,64.37
2023-04-18T10:10:37.517Z,65.39
2023-04-18T10:11:36.291Z,64.87
2023-04-18T10:12:36.239Z,66.50
2023-04-18T10:13:36.227Z,65.97
2023-04-18T10:14:36.211Z,63.42
2023-04-18T10:15:36.292Z,63.12
2023-04-18T10:16:36.539Z,63.42
2023-04-18T10:17:36.200Z,63.93
2023-04-18T10:18:36.224Z,63.53
2023-04-18T10:19:36.170Z,64.47
2023-04-18T10:20:36.292Z,64.87
2023-04-18T10:21:36.168Z,63.86
2023-04-18T10:22:36.114Z,63.28
2023-04-18T10:23:36.191Z,64.81
2023-04-18T10:24:36.097Z,65.11
2023-04-18T10:25:36.100Z,65.80
2023-04-18T10:26:36.098Z,66.00
2023-04-18T10:27:36.067Z,65.66
2023-04-18T10:28:36.053Z,65.25
2023-04-18T10:29:36.049Z,64.44
2023-04-18T10:30:36.032Z,63.01
2023-04-18T10:31:36.086Z,63.62
2023-04-18T10:32:36.059Z,64.31
2023-04-18T10:33:36.910Z,64.92
2023-04-18T10:34:36.993Z,64.79
2023-04-18T10:35:36.032Z,63.19
2023-04-18T10:36:35.980Z,62.96
2023-04-18T10:37:35.959Z,62.85
2023-04-18T10:38:35.951Z,63.57
2023-04-18T10:39:35.937Z,64.31
2023-04-18T10:40:35.947Z,64.99
2023-04-18T10:41:35.936Z,63.67
2023-04-18T10:42:35.899Z,64.89
2023-04-18T10:43:35.900Z,65.67
2023-04-18T10:44:35.877Z,64.86
2023-04-18T10:45:35.869Z,63.26
2023-04-18T10:46:35.899Z,64.99
2023-04-18T10:47:36.108Z,65.80
2023-04-18T10:49:36.559Z,65.97
2023-04-18T10:50:35.813Z,65.19
2023-04-18T10:51:35.870Z,64.58
2023-04-18T10:52:35.876Z,65.09
2023-04-18T10:53:35.792Z,64.69
2023-04-18T10:54:35.857Z,64.38
2023-04-18T10:55:35.769Z,65.70
2023-04-18T10:56:35.794Z,65.09
2023-04-18T10:57:35.807Z,67.22
2023-04-18T10:58:35.735Z,65.30
2023-04-18T10:59:35.734Z,64.18
2023-04-18T11:00:35.725Z,63.36
2023-04-18T11:01:35.782Z,64.07
2023-04-18T11:02:35.793Z,66.99
2023-04-18T11:03:35.844Z,66.46
2023-04-18T11:04:35.761Z,65.03
2023-04-18T11:05:35.677Z,64.73
2023-04-18T11:06:35.663Z,64.49
2023-04-18T11:07:35.651Z,62.05
2023-04-18T11:08:35.742Z,62.76
2023-04-18T11:09:35.631Z,63.28
2023-04-18T11:10:35.693Z,64.29
2023-04-18T11:11:35.628Z,63.48
2023-04-18T11:12:36.381Z,63.10
2023-04-18T11:13:35.575Z,64.83
2023-04-18T11:14:35.642Z,63.40
2023-04-18T11:15:35.585Z,64.79
2023-04-18T11:16:35.638Z,63.78
2023-04-18T11:17:35.610Z,65.99
2023-04-18T11:18:35.554Z,65.65
2023-04-18T11:19:35.508Z,64.53
2023-04-18T11:20:35.495Z,63.92
2023-04-18T11:21:35.496Z,62.53
2023-04-18T11:22:35.581Z,63.28
2023-04-18T11:23:35.481Z,64.29
2023-04-18T11:24:35.444Z,63.10
2023-04-18T11:25:35.447Z,63.20
2023-04-18T11:26:36.210Z,64.12
2023-04-18T11:27:35.427Z,63.91
2023-04-18T11:28:35.413Z,62.70
2023-04-18T11:29:35.426Z,64.22
2023-04-18T11:30:35.380Z,64.62
2023-04-18T11:31:35.414Z,65.23
2023-04-18T11:32:35.436Z,64.18
2023-04-18T11:33:35.373Z,64.09
2023-04-18T11:34:35.342Z,63.10
2023-04-18T11:35:35.419Z,65.03
2023-04-18T11:36:35.324Z,65.30
2023-04-18T11:37:35.324Z,64.59
2023-04-18T11:38:35.321Z,64.59
2023-04-18T11:39:35.351Z,64.39
2023-04-18T11:40:35.324Z,64.18
2023-04-18T11:41:35.284Z,64.12
2023-04-18T11:42:35.254Z,64.73
2023-04-18T11:43:35.294Z,63.88
2023-04-18T11:44:36.219Z,64.18
2023-04-18T11:45:35.234Z,65.10
2023-04-18T11:46:35.310Z,64.90
2023-04-18T11:47:35.246Z,64.90
2023-04-18T11:48:35.190Z,64.39
2023-04-18T11:49:35.179Z,66.08
2023-04-18T11:50:35.182Z,63.95
2023-04-18T11:51:35.192Z,63.65
2023-04-18T11:52:35.207Z,63.52
2023-04-18T11:53:35.151Z,63.72
2023-04-18T11:54:35.129Z,62.98
2023-04-18T11:55:35.135Z,63.66
2023-04-18T11:56:36.783Z,62.57
2023-04-18T11:57:35.093Z,62.75
2023-04-18T11:58:35.085Z,62.24
2023-04-18T11:59:35.071Z,63.06
2023-04-18T12:00:35.090Z,62.17
2023-04-18T12:01:35.078Z,62.88
2023-04-18T12:02:35.118Z,63.89
2023-04-18T12:03:35.207Z,65.31
2023-04-18T12:04:35.141Z,64.00
2023-04-18T12:05:35.299Z,62.54
2023-04-18T12:06:35.010Z,62.92
2023-04-18T12:07:35.012Z,60.66
2023-04-18T12:08:34.985Z,62.29
2023-04-18T12:09:35.046Z,59.75
2023-04-18T12:10:35.255Z,59.14
2023-04-18T12:11:34.936Z,60.33
2023-04-18T12:12:34.924Z,62.05
2023-04-18T12:13:34.931Z,61.59
2023-04-18T12:14:34.961Z,60.98
2023-04-18T12:15:35.089Z,59.64
2023-04-18T12:16:34.956Z,60.27
2023-04-18T12:17:34.933Z,59.29
2023-04-18T12:18:34.865Z,59.72
2023-04-18T12:19:34.884Z,59.12
2023-04-18T12:20:35.176Z,59.95
2023-04-18T12:21:34.828Z,61.07
2023-04-18T12:22:34.816Z,61.10
2023-04-18T12:23:34.808Z,61.40
2023-04-18T12:24:34.827Z,61.30
2023-04-18T12:25:34.824Z,62.49
2023-04-18T12:26:34.849Z,60.86
2023-04-18T12:27:34.761Z,59.99
2023-04-18T12:28:34.791Z,60.39
2023-04-18T12:29:34.745Z,60.39
2023-04-18T12:30:37.399Z,61.02
2023-04-18T12:31:34.914Z,61.53
2023-04-18T12:32:34.730Z,61.83
2023-04-18T12:33:34.702Z,61.94
2023-04-18T12:34:34.721Z,62.04
2023-04-18T12:35:34.747Z,62.04
2023-04-18T12:36:34.741Z,63.15
2023-04-18T12:37:34.694Z,62.04
2023-04-18T12:38:34.652Z,62.24
2023-04-18T12:39:34.652Z,61.80
2023-04-18T12:40:34.645Z,62.08
2023-04-18T12:41:34.703Z,61.95
2023-04-18T12:42:34.593Z,61.11
2023-04-18T12:43:34.597Z,60.41
2023-04-18T12:44:34.573Z,59.32
2023-04-18T12:45:34.581Z,59.32
2023-04-18T12:46:34.704Z,59.22
2023-04-18T12:47:34.602Z,60.43
2023-04-18T12:48:34.612Z,60.53
2023-04-18T12:49:34.536Z,60.13
2023-04-18T12:50:34.538Z,60.30
2023-04-18T12:51:34.565Z,59.80
2023-04-18T12:52:34.505Z,59.09
2023-04-18T12:53:34.485Z,60.10